Time;durP1;ratioP1;P1;durP2;ratioP2;P2;SDS_P1;SDS_P2;PMS_P1;PMS_P2;Temp;Humidity;BMP_temperature;BMP_pressure;BME280_temperature;BME280_humidity;BME280_pressure;Samples;Min_cycle;Max_cycle;Signal;HPM_P1;HPM_P2
2021/12/03 00:02:19;;;;;;;13.30;8.57;;;;;;;3.21;77.11;98240.41;1737934;80;21085;-54
2021/12/03 00:04:45;;;;;;;15.07;9.27;;;;;;;3.21;77.11;98247.92;1734087;80;21038;-54
2021/12/03 00:07:11;;;;;;;16.67;10.50;;;;;;;3.21;77.15;98244.39;1735886;80;21615;-55
2021/12/03 00:09:38;;;;;;;12.67;8.60;;;;;;;3.22;77.12;98242.14;1735960;80;21010;-54
2021/12/03 00:12:07;;;;;;;13.53;9.80;;;;;;;3.22;77.18;98245.66;1734178;80;21068;-54
2021/12/03 00:14:34;;;;;;;16.60;10.50;;;;;;;3.23;77.17;98246.03;1736547;80;20995;-54
2021/12/03 00:17:02;;;;;;;19.37;12.03;;;;;;;3.24;77.14;98242.91;1733644;80;21037;-54
2021/12/03 00:19:28;;;;;;;17.40;9.13;;;;;;;3.24;77.15;98242.45;1738506;80;21538;-54
2021/12/03 00:21:54;;;;;;;19.73;12.27;;;;;;;3.25;77.11;98247.30;1735751;80;21483;-55
2021/12/03 00:24:21;;;;;;;16.00;10.47;;;;;;;3.23;77.09;98248.69;1737365;80;21532;-54
2021/12/03 00:26:47;;;;;;;17.93;12.27;;;;;;;3.19;77.09;98249.77;1734760;80;21525;-55
2021/12/03 00:29:13;;;;;;;18.90;10.90;;;;;;;3.17;77.06;98245.44;1735936;80;21089;-54
2021/12/03 00:31:40;;;;;;;18.07;9.77;;;;;;;3.15;77.09;98248.66;1732753;80;21122;-54
2021/12/03 00:34:08;;;;;;;15.70;9.73;;;;;;;3.14;77.09;98242.93;1734357;80;21049;-54
2021/12/03 00:36:34;;;;;;;13.90;9.63;;;;;;;3.13;77.17;98239.87;1736405;80;21018;-54
2021/12/03 00:39:01;;;;;;;14.77;9.07;;;;;;;3.13;77.24;98238.08;1729219;80;21097;-54
2021/12/03 00:41:34;;;;;;;18.63;9.63;;;;;;;3.13;77.30;98238.08;1736150;80;20883;-54
2021/12/03 00:43:59;;;;;;;14.87;9.57;;;;;;;3.13;77.36;98234.09;1733157;80;21124;-54
2021/12/03 00:46:25;;;;;;;17.67;10.67;;;;;;;3.12;77.37;98231.48;1735101;80;21320;-54
2021/12/03 00:48:54;;;;;;;16.77;11.33;;;;;;;3.13;77.42;98229.23;1730805;80;20938;-54
2021/12/03 00:51:22;;;;;;;16.90;10.03;;;;;;;3.12;77.41;98226.17;1739306;80;21005;-54
2021/12/03 00:53:48;;;;;;;15.73;10.53;;;;;;;3.12;77.42;98226.17;1732784;81;21042;-54
2021/12/03 00:56:15;;;;;;;15.17;9.20;;;;;;;3.11;77.41;98229.76;1730064;80;21965;-54
2021/12/03 00:58:41;;;;;;;15.10;9.00;;;;;;;3.12;77.36;98230.16;1731798;80;21081;-54
2021/12/03 01:01:09;;;;;;;13.43;8.67;;;;;;;3.11;77.40;98229.76;1730618;80;21042;-54
2021/12/03 01:03:36;;;;;;;16.07;8.43;;;;;;;3.10;77.41;98238.20;1731052;80;21072;-54
2021/12/03 01:06:02;;;;;;;13.07;8.67;;;;;;;3.12;77.42;98246.11;1732900;80;20930;-54
2021/12/03 01:08:31;;;;;;;14.30;9.87;;;;;;;3.11;77.46;98243.91;1733832;80;21075;-54
2021/12/03 01:10:58;;;;;;;13.93;9.60;;;;;;;3.11;77.46;98244.38;1735492;81;21462;-55
2021/12/03 01:13:26;;;;;;;16.30;9.57;;;;;;;3.12;77.49;98236.80;1732500;80;20907;-54
2021/12/03 01:15:52;;;;;;;17.93;10.40;;;;;;;3.12;77.47;98223.52;1733984;80;20934;-54
2021/12/03 01:18:18;;;;;;;16.67;10.07;;;;;;;3.11;77.45;98223.11;1731442;80;21637;-54
2021/12/03 01:20:46;;;;;;;14.57;8.93;;;;;;;3.09;77.44;98220.51;1730873;80;21944;-55
2021/12/03 01:23:12;;;;;;;13.13;8.60;;;;;;;3.08;77.44;98213.46;1728917;80;21427;-54
2021/12/03 01:25:39;;;;;;;14.50;9.10;;;;;;;3.09;77.46;98211.20;1727301;80;22214;-54
2021/12/03 01:28:05;;;;;;;19.90;9.50;;;;;;;3.09;77.48;98205.89;1725577;81;21562;-54
2021/12/03 01:30:32;;;;;;;15.70;10.47;;;;;;;3.09;77.48;98212.53;1731758;81;21776;-55
2021/12/03 01:32:59;;;;;;;16.80;10.63;;;;;;;3.09;77.50;98215.19;1731207;80;22052;-54
2021/12/03 01:35:26;;;;;;;14.43;10.30;;;;;;;3.10;77.47;98210.74;1732330;80;20974;-54
2021/12/03 01:37:55;;;;;;;15.00;10.20;;;;;;;3.08;77.45;98209.47;1727029;80;21445;-55
2021/12/03 01:40:23;;;;;;;14.90;9.30;;;;;;;3.08;77.41;98205.95;1727081;80;21735;-54
2021/12/03 01:42:49;;;;;;;15.63;9.90;;;;;;;3.07;77.37;98200.23;1725723;81;21109;-54
2021/12/03 01:45:20;;;;;;;12.50;8.67;;;;;;;3.04;77.37;98202.58;1725683;80;21151;-55
2021/12/03 01:47:47;;;;;;;16.10;8.60;;;;;;;3.02;77.37;98190.67;1723520;80;21411;-54
2021/12/03 01:50:14;;;;;;;16.07;9.53;;;;;;;3.03;77.41;98189.75;1725513;80;21369;-55
2021/12/03 01:55:11;;;;;;;15.33;10.30;;;;;;;3.06;77.43;98185.23;1831338;75;26425;-54
2021/12/03 01:57:38;;;;;;;14.90;9.77;;;;;;;3.01;77.45;98196.91;1801382;77;21116;-54
2021/12/03 02:00:08;;;;;;;18.57;11.00;;;;;;;3.00;77.42;98193.85;1799987;77;21182;-54
2021/12/03 02:02:36;;;;;;;16.13;11.00;;;;;;;3.00;77.44;98192.98;1803457;77;20913;-54
2021/12/03 02:05:03;;;;;;;18.97;10.63;;;;;;;3.02;77.44;98185.82;1805178;77;20887;-54
2021/12/03 02:07:29;;;;;;;16.00;11.17;;;;;;;3.02;77.41;98198.65;1804235;77;20925;-54
2021/12/03 02:09:56;;;;;;;16.93;10.00;;;;;;;3.02;77.39;98205.75;1811029;77;20911;-54
2021/12/03 02:12:22;;;;;;;14.57;9.63;;;;;;;3.02;77.40;98213.73;1803728;77;21127;-55
2021/12/03 02:14:48;;;;;;;18.43;10.53;;;;;;;3.02;77.37;98216.39;1806467;77;20862;-54
2021/12/03 02:17:15;;;;;;;16.47;10.10;;;;;;;3.00;77.36;98215.58;1803820;77;20890;-55
2021/12/03 02:19:41;;;;;;;15.27;9.70;;;;;;;2.98;77.38;98214.31;1804671;77;20894;-54
2021/12/03 02:22:08;;;;;;;14.80;9.57;;;;;;;2.98;77.44;98216.10;1806148;77;21391;-54
2021/12/03 02:24:36;;;;;;;14.00;10.17;;;;;;;2.96;77.43;98217.98;1803903;77;20924;-54
2021/12/03 02:27:03;;;;;;;15.33;10.10;;;;;;;2.94;77.46;98217.17;1808571;77;21553;-54
2021/12/03 02:29:30;;;;;;;18.10;10.30;;;;;;;2.92;77.46;98215.91;1806220;77;20926;-54
2021/12/03 02:31:58;;;;;;;16.93;10.27;;;;;;;2.91;77.50;98205.33;1796905;78;20934;-54
2021/12/03 02:34:24;;;;;;;16.30;10.97;;;;;;;2.90;77.53;98195.16;1779539;78;20969;-54
2021/12/03 02:36:50;;;;;;;16.77;10.67;;;;;;;2.89;77.55;98192.59;1778110;78;21281;-54
2021/12/03 02:39:17;;;;;;;14.07;9.73;;;;;;;2.89;77.54;98191.27;1778312;78;21222;-54
2021/12/03 02:41:43;;;;;;;13.27;9.43;;;;;;;2.88;77.51;98183.76;1779730;78;20883;-54
2021/12/03 02:44:09;;;;;;;14.17;8.37;;;;;;;2.88;77.53;98173.59;1778675;78;20957;-54
2021/12/03 02:46:37;;;;;;;15.57;8.60;;;;;;;2.88;77.52;98177.12;1783537;78;21556;-54
2021/12/03 02:49:03;;;;;;;13.07;8.47;;;;;;;2.89;77.52;98178.81;1777145;78;21175;-54
2021/12/03 02:51:29;;;;;;;17.97;10.13;;;;;;;2.89;77.52;98174.83;1778186;78;20870;-54
2021/12/03 02:53:55;;;;;;;13.33;9.07;;;;;;;2.90;77.51;98173.91;1781894;78;20964;-54
2021/12/03 02:56:22;;;;;;;13.83;10.73;;;;;;;2.90;77.49;98162.41;1786245;78;20902;-54
2021/12/03 02:58:50;;;;;;;11.97;9.10;;;;;;;2.89;77.45;98139.45;1784250;78;20957;-54
2021/12/03 03:01:16;;;;;;;14.50;9.63;;;;;;;2.86;77.38;98144.42;1786242;78;21389;-54
2021/12/03 03:03:42;;;;;;;17.10;10.57;;;;;;;2.82;77.43;98145.92;1785420;78;21345;-54
2021/12/03 03:06:09;;;;;;;13.10;8.97;;;;;;;2.77;77.43;98155.44;1781738;78;21107;-54
2021/12/03 03:08:35;;;;;;;13.37;8.77;;;;;;;2.74;77.49;98150.24;1780934;78;21049;-54
2021/12/03 03:11:03;;;;;;;17.00;10.40;;;;;;;2.70;77.61;98148.66;1782333;78;21048;-54
2021/12/03 03:13:29;;;;;;;12.87;9.27;;;;;;;2.69;77.67;98136.77;1782185;78;21594;-54
2021/12/03 03:15:56;;;;;;;14.23;10.00;;;;;;;2.66;77.76;98135.09;1780725;78;21612;-53
2021/12/03 03:18:25;;;;;;;12.33;9.33;;;;;;;2.64;77.84;98124.98;1752164;79;21091;-54
2021/12/03 03:20:53;;;;;;;12.63;9.67;;;;;;;2.63;77.91;98120.16;1785946;78;21290;-53
2021/12/03 03:23:20;;;;;;;14.90;9.90;;;;;;;2.63;77.85;98110.00;1784373;78;20910;-53
2021/12/03 03:25:46;;;;;;;15.80;11.10;;;;;;;2.60;77.91;98097.70;1784798;79;21887;-54
2021/12/03 03:28:13;;;;;;;17.27;10.83;;;;;;;2.60;77.94;98097.70;1784124;78;21568;-54
2021/12/03 03:30:42;;;;;;;12.80;8.97;;;;;;;2.59;77.96;98096.44;1784894;78;21549;-54
2021/12/03 03:33:09;;;;;;;13.13;8.93;;;;;;;2.57;77.92;98091.18;1782733;78;21474;-53
2021/12/03 03:35:36;;;;;;;12.73;8.80;;;;;;;2.57;77.89;98091.64;1782807;78;21625;-54
2021/12/03 03:38:03;;;;;;;12.67;9.10;;;;;;;2.55;77.94;98094.36;1784166;78;22487;-54
2021/12/03 03:40:29;;;;;;;12.17;7.43;;;;;;;2.55;77.98;98098.34;1781833;78;21060;-54
2021/12/03 03:42:58;;;;;;;13.20;8.77;;;;;;;2.55;78.01;98094.86;1784350;78;21039;-54
2021/12/03 03:45:25;;;;;;;12.73;8.27;;;;;;;2.55;78.08;98108.97;1782255;78;21089;-54
2021/12/03 03:47:51;;;;;;;12.97;9.00;;;;;;;2.56;78.09;98104.52;1784125;78;20924;-54
2021/12/03 03:52:45;;;;;;;12.40;9.17;;;;;;;2.61;78.12;98097.24;1789054;78;26471;-54
2021/12/03 03:55:12;;;;;;;16.10;10.30;;;;;;;2.55;78.15;98098.34;1765640;80;21432;-54
2021/12/03 03:57:39;;;;;;;16.53;10.00;;;;;;;2.54;78.14;98096.64;1769611;80;21468;-53
2021/12/03 04:00:07;;;;;;;15.07;11.50;;;;;;;2.52;78.17;98090.98;1762768;80;21696;-54
2021/12/03 04:02:36;;;;;;;13.63;10.03;;;;;;;2.49;78.18;98084.47;1768174;80;20942;-54
2021/12/03 04:05:02;;;;;;;15.90;11.00;;;;;;;2.47;78.22;98077.89;1761745;80;21585;-54
2021/12/03 04:07:29;;;;;;;14.97;11.47;;;;;;;2.47;78.25;98077.02;1764707;80;20969;-53
2021/12/03 04:09:55;;;;;;;19.27;14.57;;;;;;;2.46;78.27;98083.30;1763788;80;21203;-54
2021/12/03 04:12:22;;;;;;;26.00;18.30;;;;;;;2.45;78.35;98090.39;1766431;80;21529;-53
2021/12/03 04:14:48;;;;;;;26.77;17.20;;;;;;;2.46;78.38;98088.60;1763082;80;21037;-53
2021/12/03 04:17:14;;;;;;;21.50;15.37;;;;;;;2.46;78.48;98069.55;1734158;81;21097;-53
2021/12/03 04:19:43;;;;;;;21.63;12.97;;;;;;;2.48;78.54;98071.65;1696592;83;21101;-52
2021/12/03 04:22:14;;;;;;;16.83;11.97;;;;;;;2.48;78.50;98069.45;1705074;83;21530;-52
2021/12/03 04:24:38;;;;;;;22.50;13.57;;;;;;;2.49;78.52;98069.86;1734536;81;21022;-52
2021/12/03 04:27:05;;;;;;;19.70;12.87;;;;;;;2.49;78.55;98079.16;1731841;81;21117;-52
2021/12/03 04:29:32;;;;;;;16.37;12.70;;;;;;;2.48;78.55;98084.06;1736823;81;21054;-53
2021/12/03 04:31:58;;;;;;;25.13;14.83;;;;;;;2.47;78.57;98091.62;1723158;81;21132;-53
2021/12/03 04:34:25;;;;;;;32.77;21.50;;;;;;;2.48;78.58;98102.19;1705213;83;21217;-52
2021/12/03 04:36:51;;;;;;;39.00;23.60;;;;;;;2.49;78.61;98093.77;1703819;83;21053;-52
2021/12/03 04:39:17;;;;;;;42.43;22.37;;;;;;;2.50;78.71;98103.00;1706860;83;21152;-53
2021/12/03 04:41:44;;;;;;;24.73;15.53;;;;;;;2.54;78.77;98106.41;1703865;82;21421;-53
2021/12/03 04:44:10;;;;;;;40.47;23.23;;;;;;;2.55;78.83;98105.48;1669318;84;21480;-53
2021/12/03 04:46:37;;;;;;;50.97;27.50;;;;;;;2.57;78.89;98094.30;1673032;84;22335;-52
2021/12/03 04:49:03;;;;;;;79.17;47.13;;;;;;;2.60;78.92;98095.52;1672228;84;21096;-53
2021/12/03 04:51:29;;;;;;;68.23;40.00;;;;;;;2.62;78.94;98098.97;1693758;83;21549;-53
2021/12/03 04:53:55;;;;;;;52.67;28.90;;;;;;;2.61;78.96;98087.48;1682390;84;21086;-53
2021/12/03 04:56:22;;;;;;;36.27;21.73;;;;;;;2.62;79.00;98080.37;1681275;84;21105;-53
2021/12/03 04:58:48;;;;;;;22.40;12.27;;;;;;;2.61;79.04;98078.19;1716338;82;21117;-53
2021/12/03 05:01:15;;;;;;;30.87;17.53;;;;;;;2.63;79.06;98071.02;1714214;82;21090;-53
2021/12/03 05:03:41;;;;;;;15.00;8.73;;;;;;;2.66;79.11;98067.34;1714171;82;21105;-53
2021/12/03 05:06:09;;;;;;;18.63;11.67;;;;;;;2.68;79.22;98062.84;1720255;82;20996;-53
2021/12/03 05:08:35;;;;;;;15.70;10.33;;;;;;;2.71;79.21;98062.72;1719580;81;20959;-52
2021/12/03 05:11:02;;;;;;;15.03;9.33;;;;;;;2.74;79.25;98045.30;1716277;82;21108;-53
2021/12/03 05:13:33;;;;;;;18.33;12.13;;;;;;;2.77;79.24;98039.86;1717776;81;20883;-53
2021/12/03 05:15:59;;;;;;;14.97;10.03;;;;;;;2.78;79.17;98035.41;1719229;82;20919;-53
2021/12/03 05:18:27;;;;;;;18.07;12.83;;;;;;;2.79;79.18;98018.53;1723256;81;21449;-53
2021/12/03 05:20:55;;;;;;;15.63;12.23;;;;;;;2.79;79.13;98009.23;1720126;82;20959;-53
2021/12/03 05:23:22;;;;;;;20.57;12.43;;;;;;;2.76;79.14;97990.77;1657876;84;21173;-53
2021/12/03 05:25:49;;;;;;;16.87;10.47;;;;;;;2.75;79.15;97987.24;1662426;85;21002;-53
2021/12/03 05:28:16;;;;;;;12.97;8.70;;;;;;;2.75;79.13;97985.91;1717122;82;20863;-53
2021/12/03 05:30:42;;;;;;;10.43;7.07;;;;;;;2.75;79.16;97993.88;1719861;82;20923;-53
2021/12/03 05:33:08;;;;;;;12.73;7.93;;;;;;;2.76;79.22;97996.08;1718421;82;20979;-53
2021/12/03 05:35:36;;;;;;;13.50;7.63;;;;;;;2.78;79.26;97996.41;1719354;82;21331;-53
2021/12/03 05:38:04;;;;;;;10.00;7.37;;;;;;;2.81;79.30;97994.06;1718122;82;20955;-54
2021/12/03 05:40:32;;;;;;;18.17;12.20;;;;;;;2.81;79.33;97998.05;1718041;82;20963;-53
2021/12/03 05:42:58;;;;;;;21.17;14.90;;;;;;;2.82;79.35;97991.80;1719454;82;21543;-53
2021/12/03 05:45:31;;;;;;;28.63;15.77;;;;;;;2.84;79.34;97997.92;1720240;82;21058;-53
2021/12/03 05:47:57;;;;;;;15.33;8.93;;;;;;;2.83;79.34;97982.45;1721099;82;21120;-53
2021/12/03 05:50:24;;;;;;;15.53;8.20;;;;;;;2.84;79.32;97980.19;1719802;82;20920;-53
2021/12/03 05:52:50;;;;;;;15.97;9.43;;;;;;;2.86;79.26;97977.00;1726246;82;21033;-53
2021/12/03 05:55:18;;;;;;;18.10;11.97;;;;;;;2.87;79.25;97986.70;1728800;82;21045;-53
2021/12/03 05:57:45;;;;;;;17.37;10.17;;;;;;;2.90;79.28;97991.86;1732228;82;20922;-53
2021/12/03 06:00:19;;;;;;;12.80;8.77;;;;;;;2.94;79.22;97999.24;1730991;82;21816;-54
2021/12/03 06:02:45;;;;;;;14.63;8.60;;;;;;;2.95;79.19;98011.60;1735116;80;20915;-53
2021/12/03 06:05:12;;;;;;;11.13;7.90;;;;;;;2.97;79.18;98027.89;1733174;82;20994;-53
2021/12/03 06:07:38;;;;;;;12.40;8.80;;;;;;;3.00;79.14;98054.77;1734739;82;20915;-53
2021/12/03 06:10:05;;;;;;;18.20;11.30;;;;;;;3.00;79.17;98059.63;1733538;82;20927;-53
2021/12/03 06:12:33;;;;;;;16.77;11.53;;;;;;;3.04;79.16;98067.00;1730579;82;20955;-53
2021/12/03 06:14:59;;;;;;;13.23;9.83;;;;;;;3.06;79.16;98067.81;1735121;82;20875;-53
2021/12/03 06:17:25;;;;;;;11.17;8.70;;;;;;;3.08;79.11;98075.22;1733674;82;21182;-53
2021/12/03 06:19:52;;;;;;;11.33;7.77;;;;;;;3.12;79.11;98075.96;1732326;82;21195;-53
2021/12/03 06:22:18;;;;;;;10.90;7.53;;;;;;;3.16;79.09;98078.86;1731290;82;21050;-54
2021/12/03 06:24:46;;;;;;;7.33;5.97;;;;;;;3.19;79.04;98078.27;1729579;82;21101;-54
2021/12/03 06:27:12;;;;;;;12.07;7.67;;;;;;;3.23;78.99;98083.83;1731564;82;21097;-53
2021/12/03 06:29:39;;;;;;;10.50;6.77;;;;;;;3.28;78.93;98095.14;1729579;82;21030;-53
2021/12/03 06:32:09;;;;;;;12.00;8.07;;;;;;;3.32;78.89;98103.83;1730126;82;21403;-53
2021/12/03 06:34:37;;;;;;;15.70;8.03;;;;;;;3.34;78.87;98121.45;1732238;82;21002;-53
2021/12/03 06:37:04;;;;;;;12.80;7.80;;;;;;;3.38;78.86;98123.05;1731123;82;21127;-53
2021/12/03 06:39:30;;;;;;;16.10;9.17;;;;;;;3.41;78.76;98119.37;1728977;82;22476;-53
2021/12/03 06:41:56;;;;;;;9.97;7.93;;;;;;;3.43;78.68;98126.82;1730801;82;21690;-53
2021/12/03 06:44:25;;;;;;;18.03;9.20;;;;;;;3.42;78.60;98123.77;1729596;81;21530;-54
2021/12/03 06:46:53;;;;;;;15.57;9.03;;;;;;;3.40;78.53;98125.66;1728353;82;22089;-53
2021/12/03 06:49:23;;;;;;;16.27;9.23;;;;;;;3.40;78.50;98126.98;1731416;82;21138;-53
2021/12/03 06:51:51;;;;;;;15.43;8.57;;;;;;;3.41;78.51;98132.20;1732627;82;21042;-53
2021/12/03 06:54:28;;;;;;;13.40;7.50;;;;;;;3.44;78.54;98131.21;1720493;82;21320;-54
2021/12/03 06:56:52;;;;;;;12.53;8.65;;;;;;;3.46;78.53;98138.66;1721862;82;20982;-54
2021/12/03 06:59:20;;;;;;;9.83;6.97;;;;;;;3.50;78.55;98128.27;1719644;82;21042;-53
2021/12/03 07:01:46;;;;;;;14.30;8.70;;;;;;;3.53;78.55;98116.16;1720581;81;21635;-54
2021/12/03 07:04:12;;;;;;;9.33;7.03;;;;;;;3.58;78.53;98111.95;1651721;84;21066;-54
2021/12/03 07:06:40;;;;;;;16.10;9.73;;;;;;;3.61;78.43;98115.81;1659706;85;21086;-54
2021/12/03 07:09:06;;;;;;;12.20;9.67;;;;;;;3.62;78.37;98116.21;1731012;81;20939;-54
2021/12/03 07:11:33;;;;;;;16.93;9.83;;;;;;;3.63;78.33;98109.95;1725379;81;21042;-53
2021/12/03 07:13:59;;;;;;;14.23;10.17;;;;;;;3.63;78.27;98109.49;1726987;81;21170;-54
2021/12/03 07:16:26;;;;;;;13.60;9.87;;;;;;;3.63;78.28;98102.84;1722034;82;21074;-54
2021/12/03 07:18:54;;;;;;;11.93;7.90;;;;;;;3.64;78.28;98100.58;1717870;82;21043;-53
2021/12/03 07:21:21;;;;;;;14.37;7.93;;;;;;;3.68;78.20;98107.94;1714875;82;21115;-54
2021/12/03 07:23:50;;;;;;;13.90;8.50;;;;;;;3.70;78.14;98114.92;1716239;82;21054;-54
2021/12/03 07:26:17;;;;;;;9.83;6.63;;;;;;;3.72;78.13;98111.73;1718743;82;23061;-54
2021/12/03 07:28:44;;;;;;;11.77;7.67;;;;;;;3.76;78.19;98102.65;1717381;82;21069;-53
2021/12/03 07:31:11;;;;;;;10.27;6.47;;;;;;;3.79;78.12;98112.30;1718577;81;21152;-53
2021/12/03 07:33:39;;;;;;;9.77;6.97;;;;;;;3.82;78.05;98115.29;1663114;84;21377;-53
2021/12/03 07:36:06;;;;;;;11.90;7.63;;;;;;;3.83;78.04;98117.02;1665267;85;21537;-54
2021/12/03 07:38:33;;;;;;;11.20;8.43;;;;;;;3.86;77.97;98124.38;1725411;82;21602;-53
2021/12/03 07:41:00;;;;;;;10.63;7.20;;;;;;;3.89;77.91;98132.70;1722080;82;20927;-53
2021/12/03 07:43:26;;;;;;;13.77;8.63;;;;;;;3.90;77.82;98132.63;1725257;81;20915;-53
2021/12/03 07:45:52;;;;;;;12.70;9.23;;;;;;;3.91;77.75;98130.83;1723972;82;20911;-53
2021/12/03 07:48:22;;;;;;;12.10;8.07;;;;;;;3.92;77.72;98140.05;1659189;84;21390;-53
2021/12/03 07:50:48;;;;;;;10.40;7.20;;;;;;;3.94;77.66;98138.19;1666584;84;21557;-53
2021/12/03 07:53:17;;;;;;;11.63;7.93;;;;;;;3.98;77.67;98136.25;1687843;82;20971;-53
2021/12/03 07:55:44;;;;;;;9.53;6.83;;;;;;;4.03;77.72;98143.55;1727627;82;20927;-53
2021/12/03 07:58:11;;;;;;;11.00;7.37;;;;;;;4.09;77.62;98142.78;1727377;82;20963;-53
2021/12/03 08:00:37;;;;;;;8.83;6.47;;;;;;;4.14;77.57;98146.56;1734927;81;20979;-54
2021/12/03 08:03:04;;;;;;;12.13;8.17;;;;;;;4.17;77.60;98136.61;1729032;81;21092;-53
2021/12/03 08:05:30;;;;;;;8.50;6.17;;;;;;;4.22;77.52;98124.42;1725263;81;20963;-53
2021/12/03 08:07:58;;;;;;;13.37;7.77;;;;;;;4.26;77.25;98123.32;1722671;82;20944;-53
2021/12/03 08:10:24;;;;;;;10.37;7.97;;;;;;;4.29;77.14;98128.98;1721507;82;20974;-53
2021/12/03 08:12:51;;;;;;;11.53;8.13;;;;;;;4.32;76.97;98143.02;1660466;84;20973;-53
2021/12/03 08:15:17;;;;;;;9.60;7.43;;;;;;;4.32;76.86;98137.70;1660281;84;21115;-53
2021/12/03 08:17:47;;;;;;;9.27;6.60;;;;;;;4.33;76.78;98142.09;1727345;81;20988;-53
2021/12/03 08:20:13;;;;;;;10.47;6.37;;;;;;;4.37;76.75;98143.65;1733481;81;20907;-53
2021/12/03 08:22:41;;;;;;;10.23;5.37;;;;;;;4.40;76.65;98144.84;1734255;81;21001;-53
2021/12/03 08:25:09;;;;;;;10.77;6.13;;;;;;;4.43;76.52;98126.49;1732537;81;21516;-54
2021/12/03 08:27:35;;;;;;;9.70;7.53;;;;;;;4.46;76.44;98113.89;1727530;81;21029;-53
2021/12/03 08:30:04;;;;;;;10.70;6.53;;;;;;;4.50;76.34;98101.30;1727376;81;20947;-54
2021/12/03 08:32:31;;;;;;;9.63;7.00;;;;;;;4.53;76.15;98090.47;1729823;81;21066;-53
2021/12/03 08:34:58;;;;;;;10.40;8.03;;;;;;;4.55;76.13;98086.80;1730379;81;21102;-54
2021/12/03 08:37:26;;;;;;;10.47;6.90;;;;;;;4.60;76.08;98098.54;1726731;82;21070;-53
2021/12/03 08:39:54;;;;;;;8.83;7.03;;;;;;;4.66;76.01;98105.38;1718612;81;21074;-54
2021/12/03 08:42:21;;;;;;;12.77;6.83;;;;;;;4.70;75.96;98119.80;1729023;81;21062;-54
2021/12/03 08:44:47;;;;;;;10.17;6.57;;;;;;;4.78;75.80;98128.73;1719994;82;21031;-53
2021/12/03 08:47:14;;;;;;;7.67;6.17;;;;;;;4.85;75.69;98139.47;1721139;82;21149;-53
2021/12/03 08:49:52;;;;;;;10.70;6.47;;;;;;;4.88;75.59;98138.86;1720999;82;21058;-53
2021/12/03 08:54:51;;;;;;;14.10;7.67;;;;;;;4.95;75.12;98140.27;1655674;85;21127;-53
2021/12/03 08:57:21;;;;;;;10.77;7.30;;;;;;;4.95;74.88;98132.73;1718308;82;21046;-53
2021/12/03 08:59:49;;;;;;;8.70;7.17;;;;;;;4.95;74.76;98122.07;1714591;82;21592;-53
2021/12/03 09:02:15;;;;;;;12.83;8.07;;;;;;;4.94;74.61;98131.00;1660096;84;21151;-53
2021/12/03 09:04:42;;;;;;;9.07;7.43;;;;;;;4.90;74.50;98131.66;1653315;85;22222;-53
2021/12/03 09:07:08;;;;;;;15.83;8.17;;;;;;;4.89;74.43;98137.92;1656335;85;21510;-53
2021/12/03 09:09:35;;;;;;;17.73;7.33;;;;;;;4.88;74.40;98136.66;1684917;83;21552;-53
2021/12/03 09:12:01;;;;;;;9.87;7.97;;;;;;;4.87;74.39;98147.80;1689483;83;21017;-53
2021/12/03 09:14:35;;;;;;;10.57;7.77;;;;;;;4.83;74.30;98150.24;1716129;82;21062;-53
2021/12/03 09:17:08;;;;;;;12.30;8.57;;;;;;;4.79;74.29;98151.79;1723088;82;21565;-53
2021/12/03 09:19:34;;;;;;;13.80;10.03;;;;;;;4.76;74.29;98153.30;1716850;81;21074;-53
2021/12/03 09:21:53;;;;;;;18.47;13.07;;;;;;;4.73;74.30;98148.11;1716329;80;21655;-53
2021/12/03 09:24:26;;;;;;;16.83;12.17;;;;;;;4.66;74.34;98150.22;1720097;82;21090;-53
2021/12/03 09:26:48;;;;;;;15.63;12.53;;;;;;;4.63;74.36;98149.50;1720569;82;21085;-54
2021/12/03 09:29:23;;;;;;;16.77;10.57;;;;;;;4.60;74.33;98158.97;1719141;82;21135;-53
2021/12/03 09:31:46;;;;;;;12.13;9.97;;;;;;;4.58;74.44;98152.88;1659088;84;21104;-53
2021/12/03 09:34:15;;;;;;;11.93;8.77;;;;;;;4.57;74.45;98148.02;1657295;85;21059;-53
2021/12/03 09:36:41;;;;;;;17.63;9.87;;;;;;;4.56;74.49;98144.48;1715423;82;21620;-53
2021/12/03 09:39:18;;;;;;;17.77;9.47;;;;;;;4.54;74.48;98145.02;1719287;82;21022;-53
2021/12/03 09:41:40;;;;;;;15.80;11.57;;;;;;;4.53;74.48;98160.61;1718862;82;21271;-53
2021/12/03 09:44:06;;;;;;;19.37;13.50;;;;;;;4.48;74.38;98161.31;1690993;83;21883;-53
2021/12/03 09:46:32;;;;;;;21.20;13.23;;;;;;;4.41;74.40;98177.68;1717779;82;21694;-53
2021/12/03 09:52:26;;;;;;;20.80;14.40;;;;;;;4.26;74.53;98171.27;1718397;82;21129;-53
2021/12/03 09:56:46;;;;;;;21.77;13.70;;;;;;;4.08;74.94;98173.00;1721933;82;21086;-53
2021/12/03 10:04:58;;;;;;;21.87;15.30;;;;;;;4.00;75.63;98159.65;1659323;85;20484;-53
2021/12/03 10:13:17;;;;;;;16.27;12.03;;;;;;;3.75;76.51;98137.31;1715905;82;20998;-53
2021/12/03 10:15:14;;;;;;;17.23;11.20;;;;;;;3.69;76.72;98140.27;1699950;82;21524;-53
2021/12/03 10:17:46;;;;;;;14.93;10.50;;;;;;;3.68;76.96;98151.38;1654694;84;21096;-53
2021/12/03 10:23:54;;;;;;;16.67;11.23;;;;;;;3.64;77.33;98161.78;1685092;83;21576;-53
2021/12/03 10:34:07;;;;;;;6.87;3.98;;;;;;;3.39;77.76;98217.87;1660429;85;21172;-53
2021/12/03 10:36:43;;;;;;;4.93;2.87;;;;;;;3.28;77.63;98215.27;1688655;82;21456;-53
2021/12/03 10:42:11;;;;;;;5.72;3.65;;;;;;;3.04;77.97;98233.14;1659462;84;21030;-53
2021/12/03 10:47:28;;;;;;;5.97;3.83;;;;;;;2.96;78.42;98229.48;1720969;81;21570;-53
2021/12/03 10:52:18;;;;;;;4.83;2.10;;;;;;;2.92;78.53;98229.20;1719541;82;21015;-53
2021/12/03 11:11:22;;;;;;;2.63;0.93;;;;;;;2.83;79.34;98274.75;1653888;84;21431;-53
2021/12/03 11:44:16;;;;;;;0.60;0.30;;;;;;;2.61;80.08;98317.27;1721261;82;20979;-54
2021/12/03 12:15:35;;;;;;;0.57;0.30;;;;;;;2.19;80.62;98394.56;1652198;84;21235;-53
2021/12/03 12:40:14;;;;;;;0.50;0.37;;;;;;;2.10;80.63;98403.72;1731318;82;21421;-53
2021/12/03 13:28:45;;;;;;;2.08;0.80;;;;;;;1.90;81.46;98521.17;1722653;82;21552;-54
2021/12/03 13:35:34;;;;;;;1.20;0.68;;;;;;;1.92;81.52;98522.91;1717861;82;21046;-54
2021/12/03 14:06:11;;;;;;;1.30;0.80;;;;;;;2.01;81.35;98615.05;1722479;82;21117;-54
2021/12/03 14:56:23;;;;;;;1.53;0.90;;;;;;;1.81;81.59;98679.80;1720050;81;21568;-54
2021/12/03 14:58:50;;;;;;;2.53;1.00;;;;;;;1.80;81.66;98686.02;1716435;82;21042;-54
2021/12/03 15:04:36;;;;;;;2.57;1.27;;;;;;;1.79;81.76;98674.53;1643819;85;21168;-55
2021/12/03 15:07:05;;;;;;;1.55;1.27;;;;;;;1.80;81.77;98684.23;1710562;82;20882;-54
2021/12/03 15:09:32;;;;;;;3.40;1.20;;;;;;;1.83;81.81;98693.44;1718010;82;21352;-55
2021/12/03 15:12:37;;;;;;;1.47;1.10;;;;;;;1.85;81.74;98702.23;1717272;82;20947;-53
2021/12/03 15:18:08;;;;;;;2.20;1.60;;;;;;;1.76;81.64;98698.98;1659791;84;21116;-54
2021/12/03 15:30:47;;;;;;;3.33;1.43;;;;;;;1.74;81.96;98716.27;1720704;82;21101;-55
2021/12/03 15:35:58;;;;;;;2.63;2.30;;;;;;;1.79;81.81;98720.96;1716466;82;21042;-54
2021/12/03 15:38:37;;;;;;;2.50;2.23;;;;;;;1.78;81.77;98729.86;1717497;82;22198;-54
2021/12/03 16:12:50;;;;;;;6.53;4.03;;;;;;;1.62;81.49;98772.77;1773786;78;21044;-55
2021/12/03 16:17:50;;;;;;;7.23;4.00;;;;;;;1.61;81.59;98773.25;1724330;82;20891;-54
2021/12/03 16:46:57;;;;;;;14.23;8.77;;;;;;;1.59;81.51;98830.77;1748551;81;21347;-54
2021/12/03 16:52:04;;;;;;;17.48;12.33;;;;;;;1.63;81.40;98842.14;1748887;81;20954;-54
2021/12/03 16:54:40;;;;;;;4.07;3.13;;;;;;;1.65;81.30;98843.85;1748579;80;21076;-55
2021/12/03 16:57:03;;;;;;;3.17;2.30;;;;;;;1.63;81.23;98853.62;1746860;80;20946;-54
2021/12/03 16:59:31;;;;;;;2.83;2.27;;;;;;;1.60;81.10;98847.55;1744445;80;21389;-54
2021/12/03 17:07:29;;;;;;;2.90;1.73;;;;;;;1.56;81.06;98867.97;1748111;80;21107;-53
2021/12/03 17:09:47;;;;;;;2.43;1.87;;;;;;;1.56;81.04;98871.95;1738398;80;21393;-54
2021/12/03 17:14:53;;;;;;;3.20;2.10;;;;;;;1.58;80.95;98878.55;1731021;80;21352;-54
2021/12/03 17:30:54;;;;;;;4.80;2.30;;;;;;;1.48;80.61;98879.23;1729648;80;20182;-55
2021/12/03 17:57:08;;;;;;;7.43;5.50;;;;;;;1.27;80.54;98913.80;1732696;81;21065;-54
2021/12/03 17:59:37;;;;;;;7.00;5.53;;;;;;;1.28;80.58;98911.54;1700578;82;21435;-54
2021/12/03 18:04:42;;;;;;;12.33;6.53;;;;;;;1.30;80.56;98916.36;1729467;81;21363;-54
2021/12/03 18:07:12;;;;;;;10.08;6.53;;;;;;;1.30;80.49;98920.33;1729321;81;21407;-54
2021/12/03 18:55:11;;;;;;;8.10;5.47;;;;;;;1.05;80.61;98981.45;1732358;80;21369;-52
2021/12/03 18:57:43;;;;;;;9.40;5.10;;;;;;;1.02;80.61;98982.88;1731606;80;21058;-52